Time;durP1;ratioP1;P1;durP2;ratioP2;P2;SDS_P1;SDS_P2;PMS_P1;PMS_P2;Temp;Humidity;BMP_temperature;BMP_pressure;BME280_temperature;BME280_humidity;BME280_pressure;Samples;Min_cycle;Max_cycle;Signal;HPM_P1;HPM_P2
2023/10/23 00:01:40;;;;;;;1.67;1.00;;;22.40;78.10;;;;;;5056706;23;20508;-87
2023/10/23 00:04:34;;;;;;;1.50;1.00;;;22.40;77.60;;;;;;5050758;28;20426;-87
2023/10/23 00:07:12;;;;;;;1.20;0.80;;;22.40;77.80;;;;;;5055920;28;20470;-92
2023/10/23 00:12:13;;;;;;;1.10;0.83;;;22.40;78.00;;;;;;5051321;23;20516;-88
2023/10/23 00:17:08;;;;;;;1.67;1.23;;;22.40;77.50;;;;;;5048780;23;20550;-89
2023/10/23 00:19:35;;;;;;;1.10;1.00;;;22.40;77.70;;;;;;5048044;23;20255;-87
2023/10/23 00:22:02;;;;;;;1.40;0.80;;;22.40;77.40;;;;;;5050300;28;20446;-93
2023/10/23 00:27:12;;;;;;;1.30;0.90;;;22.40;77.30;;;;;;5090394;22;20478;-89
2023/10/23 00:32:32;;;;;;;1.30;0.90;;;22.40;77.30;;;;;;5032120;28;20446;-92
2023/10/23 00:35:02;;;;;;;1.80;0.90;;;22.40;77.70;;;;;;5130854;23;20430;-87
2023/10/23 00:37:29;;;;;;;1.07;0.83;;;22.40;77.40;;;;;;5054631;28;20449;-88
2023/10/23 00:39:59;;;;;;;1.53;0.80;;;22.40;77.60;;;;;;5054236;28;20470;-94
2023/10/23 00:42:31;;;;;;;1.20;1.10;;;22.40;77.40;;;;;;5054043;28;20422;-95
2023/10/23 00:45:01;;;;;;;1.37;1.03;;;22.40;78.60;;;;;;5053363;28;20493;-87
2023/10/23 00:47:39;;;;;;;1.20;0.80;;;22.40;77.10;;;;;;5053380;28;20485;-96
2023/10/23 00:52:49;;;;;;;1.20;1.10;;;22.40;77.20;;;;;;5038179;28;20430;-96
2023/10/23 00:55:17;;;;;;;1.10;0.90;;;22.40;77.40;;;;;;5061508;23;20521;-88
2023/10/23 00:57:47;;;;;;;1.20;1.00;;;22.40;77.10;;;;;;5069584;23;20493;-88
2023/10/23 01:00:17;;;;;;;1.00;0.80;;;22.40;77.60;;;;;;5038066;23;20486;-94
2023/10/23 01:02:48;;;;;;;1.10;1.00;;;22.30;76.90;;;;;;5032600;28;20468;-89
2023/10/23 01:05:17;;;;;;;1.10;1.00;;;22.40;77.80;;;;;;5051510;23;20940;-90
2023/10/23 01:07:44;;;;;;;1.10;0.80;;;22.40;77.00;;;;;;5048935;28;20489;-95
2023/10/23 01:10:11;;;;;;;1.40;1.00;;;22.40;77.30;;;;;;5054549;28;20437;-92
2023/10/23 01:12:40;;;;;;;1.30;0.90;;;22.40;77.10;;;;;;5057545;28;20426;-93
2023/10/23 01:15:08;;;;;;;1.10;0.90;;;22.30;77.10;;;;;;5057337;28;20452;-91
2023/10/23 01:17:40;;;;;;;1.10;1.00;;;22.30;76.60;;;;;;5056870;28;20438;-88
2023/10/23 01:20:41;;;;;;;1.20;0.90;;;22.30;77.40;;;;;;5056172;28;20449;-87
2023/10/23 01:25:53;;;;;;;1.10;0.80;;;22.40;77.30;;;;;;5052075;28;20440;-90
2023/10/23 01:28:22;;;;;;;1.10;0.80;;;22.40;77.00;;;;;;5057376;28;20470;-87
2023/10/23 01:31:13;;;;;;;1.30;1.00;;;22.30;76.70;;;;;;5063021;23;20474;-89
2023/10/23 01:33:41;;;;;;;1.53;0.83;;;22.30;77.20;;;;;;5059081;28;20430;-94
2023/10/23 01:36:29;;;;;;;1.20;0.90;;;22.30;77.00;;;;;;5057386;28;20466;-88
2023/10/23 01:38:56;;;;;;;1.30;1.00;;;22.30;77.10;;;;;;5058285;28;20509;-87
2023/10/23 01:41:28;;;;;;;1.37;0.93;;;22.30;76.60;;;;;;5057355;28;20414;-90
2023/10/23 01:43:57;;;;;;;1.10;0.87;;;22.30;77.00;;;;;;5056866;28;20474;-88
2023/10/23 01:46:27;;;;;;;1.33;1.07;;;22.30;76.60;;;;;;5007195;28;20454;-87
2023/10/23 01:48:57;;;;;;;1.20;0.90;;;22.30;76.70;;;;;;5177893;22;20931;-90
2023/10/23 01:51:27;;;;;;;1.10;0.90;;;22.30;76.80;;;;;;5087599;22;20480;-87
2023/10/23 01:53:54;;;;;;;1.10;0.87;;;22.30;76.60;;;;;;5064832;23;20430;-87
2023/10/23 01:56:21;;;;;;;1.00;0.80;;;22.30;76.70;;;;;;5059576;23;21025;-88
2023/10/23 01:59:11;;;;;;;1.10;0.90;;;22.30;76.60;;;;;;5055495;28;20438;-96
2023/10/23 02:04:24;;;;;;;1.30;1.10;;;22.30;76.60;;;;;;5065414;22;20454;-87
2023/10/23 02:06:59;;;;;;;1.60;1.07;;;22.30;76.20;;;;;;5069024;23;20246;-90
2023/10/23 02:14:52;;;;;;;1.07;0.80;;;22.30;76.90;;;;;;5055912;28;20477;-91
2023/10/23 02:17:20;;;;;;;4.10;1.00;;;22.20;76.50;;;;;;5056807;28;20426;-91
2023/10/23 02:19:53;;;;;;;1.00;0.80;;;22.30;76.50;;;;;;5056296;28;20493;-87
2023/10/23 02:22:35;;;;;;;1.10;0.80;;;22.30;76.70;;;;;;5055010;28;20421;-88
2023/10/23 02:25:21;;;;;;;1.23;0.93;;;22.30;76.40;;;;;;5056175;28;20437;-93
2023/10/23 02:27:49;;;;;;;1.20;0.80;;;22.20;76.40;;;;;;5055479;28;20462;-87
2023/10/23 02:30:29;;;;;;;1.00;0.77;;;22.20;76.50;;;;;;5055063;28;20435;-88
2023/10/23 02:32:57;;;;;;;1.30;0.90;;;22.30;76.40;;;;;;5055188;28;20438;-87
2023/10/23 02:35:25;;;;;;;1.00;0.80;;;22.20;76.30;;;;;;5069410;23;20529;-92
2023/10/23 02:37:52;;;;;;;1.30;0.87;;;22.20;76.20;;;;;;5053184;28;20517;-88
2023/10/23 02:40:19;;;;;;;1.10;0.80;;;22.20;76.30;;;;;;5135565;23;20482;-96
2023/10/23 02:42:49;;;;;;;1.00;0.80;;;22.20;76.30;;;;;;5039052;28;20474;-87
2023/10/23 02:45:16;;;;;;;1.10;0.80;;;22.20;76.20;;;;;;5056533;28;20438;-89
2023/10/23 02:47:44;;;;;;;1.10;0.80;;;22.20;76.20;;;;;;5051222;28;20626;-94
2023/10/23 02:50:14;;;;;;;2.17;1.00;;;22.20;76.10;;;;;;5062150;22;20502;-96
2023/10/23 02:52:41;;;;;;;1.80;0.97;;;22.20;76.00;;;;;;5063323;23;20462;-87
2023/10/23 02:55:10;;;;;;;1.10;0.90;;;22.20;76.00;;;;;;5062921;23;20462;-88
2023/10/23 02:57:44;;;;;;;1.10;0.90;;;22.20;75.90;;;;;;5055769;28;20446;-87
2023/10/23 03:00:21;;;;;;;1.37;1.00;;;22.20;75.90;;;;;;5050993;23;20572;-87
2023/10/23 03:02:53;;;;;;;1.00;0.70;;;22.20;76.00;;;;;;5055978;28;20460;-88
2023/10/23 03:05:23;;;;;;;1.10;0.80;;;22.20;75.90;;;;;;5151389;22;20480;-88
2023/10/23 03:07:50;;;;;;;1.13;0.90;;;22.20;75.80;;;;;;5059783;23;20513;-91
2023/10/23 03:10:17;;;;;;;1.13;0.93;;;22.20;76.00;;;;;;5057569;23;20505;-87
2023/10/23 03:12:51;;;;;;;1.10;0.80;;;22.20;75.80;;;;;;5051373;23;20596;-92
2023/10/23 03:15:18;;;;;;;1.00;0.90;;;22.20;75.90;;;;;;5054534;28;20512;-89
2023/10/23 03:20:20;;;;;;;1.53;0.90;;;22.20;75.70;;;;;;5062111;23;20478;-88
2023/10/23 03:22:46;;;;;;;1.40;0.90;;;22.20;75.80;;;;;;5042318;23;20521;-94
2023/10/23 03:25:17;;;;;;;1.27;0.90;;;22.20;75.80;;;;;;5034196;28;20469;-88
2023/10/23 03:27:47;;;;;;;1.00;0.80;;;22.20;75.60;;;;;;5035372;28;20471;-90
2023/10/23 03:30:14;;;;;;;1.00;0.70;;;22.20;76.60;;;;;;5054098;23;20477;-87
2023/10/23 03:32:51;;;;;;;1.10;0.83;;;22.10;75.50;;;;;;5047011;28;20513;-90
2023/10/23 03:35:19;;;;;;;1.50;0.80;;;22.20;75.60;;;;;;5033822;28;20461;-95
2023/10/23 03:38:11;;;;;;;1.00;0.73;;;22.10;75.50;;;;;;5054130;28;20482;-87
2023/10/23 03:40:38;;;;;;;1.40;1.00;;;22.10;75.60;;;;;;5049126;28;20446;-94
2023/10/23 03:43:07;;;;;;;1.57;0.87;;;22.10;75.70;;;;;;5054724;28;20466;-95
2023/10/23 03:45:53;;;;;;;1.40;0.80;;;22.10;75.50;;;;;;5053908;28;20441;-88
2023/10/23 03:48:20;;;;;;;1.10;0.93;;;22.10;75.40;;;;;;5048253;28;20454;-87
2023/10/23 03:50:50;;;;;;;1.30;1.00;;;22.10;75.50;;;;;;5052320;28;20439;-87
2023/10/23 03:53:18;;;;;;;1.10;0.80;;;22.10;75.50;;;;;;5053927;28;20445;-93
2023/10/23 03:55:44;;;;;;;1.20;0.80;;;22.10;75.50;;;;;;5047161;28;20478;-87
2023/10/23 03:58:11;;;;;;;1.10;0.90;;;22.10;75.60;;;;;;5049183;28;20469;-87
2023/10/23 04:03:03;;;;;;;1.20;0.97;;;22.10;75.40;;;;;;5039200;23;20459;-91
2023/10/23 04:05:34;;;;;;;1.20;1.00;;;22.10;75.50;;;;;;5035074;23;20236;-88
2023/10/23 04:08:04;;;;;;;1.13;1.00;;;22.10;75.40;;;;;;5006369;28;20492;-87
2023/10/23 04:10:33;;;;;;;1.23;0.90;;;22.10;75.20;;;;;;5032053;28;20447;-88
2023/10/23 04:13:01;;;;;;;1.10;0.90;;;22.10;75.40;;;;;;5049358;23;20469;-96
2023/10/23 04:15:36;;;;;;;1.20;0.90;;;22.10;75.30;;;;;;5053102;23;20493;-86
2023/10/23 04:18:07;;;;;;;1.27;1.10;;;22.10;75.10;;;;;;5021436;23;20464;-88
2023/10/23 04:20:42;;;;;;;1.00;0.80;;;22.00;75.20;;;;;;5016167;28;20452;-92
2023/10/23 04:23:10;;;;;;;1.10;0.80;;;22.00;75.20;;;;;;5017126;28;20415;-88
2023/10/23 04:25:49;;;;;;;1.20;0.80;;;22.10;75.20;;;;;;5014896;28;20515;-87
2023/10/23 04:28:16;;;;;;;1.20;1.00;;;22.10;75.10;;;;;;5020589;23;20490;-88
2023/10/23 04:33:27;;;;;;;1.10;0.83;;;22.00;74.90;;;;;;4975331;28;20414;-92
2023/10/23 04:36:14;;;;;;;1.10;0.87;;;22.00;75.10;;;;;;5011391;28;20451;-90
2023/10/23 04:39:01;;;;;;;1.63;0.90;;;22.00;75.20;;;;;;5029370;23;20498;-87
2023/10/23 04:41:33;;;;;;;2.37;0.90;;;22.00;75.00;;;;;;5040154;23;20529;-89
2023/10/23 04:44:01;;;;;;;1.20;1.10;;;22.00;75.00;;;;;;5047648;23;22369;-87
2023/10/23 04:46:28;;;;;;;1.20;1.00;;;22.00;74.90;;;;;;5049285;23;20506;-95
2023/10/23 04:49:15;;;;;;;1.13;1.00;;;22.00;75.10;;;;;;5025625;23;20480;-90
2023/10/23 04:51:42;;;;;;;1.10;0.80;;;22.00;74.90;;;;;;5036686;23;20510;-91
2023/10/23 04:54:14;;;;;;;1.17;1.07;;;22.00;75.00;;;;;;5036462;28;20953;-93
2023/10/23 04:56:41;;;;;;;1.40;1.00;;;22.00;75.00;;;;;;5038797;28;20450;-95
2023/10/23 04:59:11;;;;;;;1.17;0.93;;;22.00;74.80;;;;;;5126300;23;20482;-95
2023/10/23 05:01:38;;;;;;;1.10;1.00;;;22.00;75.00;;;;;;5038602;28;20446;-90
2023/10/23 05:04:11;;;;;;;1.30;1.00;;;22.00;75.00;;;;;;5038870;28;20423;-95
2023/10/23 05:06:41;;;;;;;1.37;1.27;;;22.00;74.80;;;;;;5038515;28;20422;-89
2023/10/23 05:09:10;;;;;;;1.17;0.90;;;22.00;74.90;;;;;;5043629;22;20499;-87
2023/10/23 05:14:04;;;;;;;1.23;1.10;;;22.00;74.90;;;;;;5038332;22;20522;-90
2023/10/23 05:16:36;;;;;;;1.10;1.00;;;22.00;74.80;;;;;;5043449;23;20291;-87
2023/10/23 05:19:03;;;;;;;1.40;1.20;;;22.00;74.80;;;;;;5042716;23;20487;-87
2023/10/23 05:21:33;;;;;;;1.87;0.93;;;22.00;74.80;;;;;;5048355;23;20497;-93
2023/10/23 05:24:03;;;;;;;1.37;1.20;;;21.90;74.60;;;;;;5044590;23;20493;-92
2023/10/23 05:26:30;;;;;;;1.20;0.90;;;22.00;74.70;;;;;;5057816;28;20485;-87
2023/10/23 05:28:57;;;;;;;1.00;0.80;;;22.00;74.70;;;;;;5054540;28;20458;-88
2023/10/23 05:31:29;;;;;;;1.30;1.10;;;22.00;74.80;;;;;;5056432;28;20446;-86
2023/10/23 05:33:56;;;;;;;1.10;1.00;;;22.00;74.80;;;;;;5062101;23;20489;-87
2023/10/23 05:36:23;;;;;;;1.33;1.00;;;22.00;74.70;;;;;;5035332;28;20478;-87
2023/10/23 05:38:50;;;;;;;1.23;1.00;;;22.00;74.80;;;;;;5037078;28;20422;-90
2023/10/23 05:41:24;;;;;;;1.13;1.00;;;22.00;74.70;;;;;;5295782;22;20437;-86
2023/10/23 05:43:51;;;;;;;1.43;1.13;;;21.90;74.60;;;;;;5013989;28;20466;-88
2023/10/23 05:46:20;;;;;;;1.20;1.00;;;21.90;74.50;;;;;;5016533;28;20444;-90
2023/10/23 05:51:37;;;;;;;1.00;0.80;;;21.90;74.50;;;;;;5059544;23;20481;-94
2023/10/23 05:54:16;;;;;;;1.30;1.00;;;22.00;74.60;;;;;;5044789;23;20498;-94
2023/10/23 06:07:26;;;;;;;1.27;1.03;;;21.90;74.50;;;;;;3253362;22;20477;-87
2023/10/23 06:12:37;;;;;;;1.30;1.17;;;21.90;74.50;;;;;;5075024;22;20493;-87
2023/10/23 06:15:05;;;;;;;1.10;0.90;;;21.90;74.50;;;;;;5043932;28;20453;-95
2023/10/23 06:17:32;;;;;;;1.10;1.00;;;21.90;74.70;;;;;;5044029;28;20442;-86
2023/10/23 06:20:05;;;;;;;1.30;1.13;;;21.90;74.90;;;;;;5048566;28;20438;-95
2023/10/23 06:22:33;;;;;;;3.10;1.20;;;21.90;74.70;;;;;;5035696;28;20435;-91
2023/10/23 06:25:00;;;;;;;3.30;1.23;;;21.90;74.60;;;;;;5035913;28;20533;-92
2023/10/23 06:27:27;;;;;;;1.60;0.80;;;21.90;74.70;;;;;;5035849;28;20441;-91
2023/10/23 06:29:53;;;;;;;1.20;1.00;;;21.90;74.70;;;;;;5035755;28;20496;-91
2023/10/23 06:32:21;;;;;;;1.53;1.10;;;21.90;75.00;;;;;;5035627;28;20442;-93
2023/10/23 06:34:51;;;;;;;2.27;1.20;;;21.90;75.00;;;;;;5035866;28;20450;-92
2023/10/23 06:37:17;;;;;;;1.43;1.23;;;21.90;75.20;;;;;;5035465;28;20442;-92
2023/10/23 06:39:46;;;;;;;1.20;1.00;;;21.90;75.30;;;;;;5036297;28;20474;-92
2023/10/23 06:42:12;;;;;;;1.70;1.20;;;21.90;75.30;;;;;;5035290;28;20454;-91
2023/10/23 06:44:39;;;;;;;1.30;1.20;;;22.00;75.50;;;;;;5035310;28;20446;-91
2023/10/23 06:47:07;;;;;;;1.50;1.00;;;21.90;75.40;;;;;;5035403;28;20810;-92
2023/10/23 06:49:34;;;;;;;1.30;1.00;;;21.90;75.40;;;;;;5035285;28;20974;-92
2023/10/23 06:52:00;;;;;;;1.20;1.00;;;21.90;75.60;;;;;;5035287;28;20442;-93
2023/10/23 06:54:27;;;;;;;1.20;1.00;;;21.90;75.70;;;;;;5035401;28;20439;-91
2023/10/23 06:56:56;;;;;;;1.47;1.30;;;22.00;75.80;;;;;;5035398;28;20777;-92
2023/10/23 06:59:22;;;;;;;1.40;1.20;;;22.00;75.70;;;;;;5034991;28;20473;-93
2023/10/23 07:01:50;;;;;;;1.23;1.00;;;22.10;75.70;;;;;;5018666;28;20533;-92
2023/10/23 07:04:16;;;;;;;1.20;1.07;;;21.90;75.80;;;;;;5034813;28;20452;-92
2023/10/23 07:06:43;;;;;;;1.67;1.10;;;22.00;75.90;;;;;;5034997;28;20453;-91
2023/10/23 07:09:10;;;;;;;1.40;1.00;;;22.00;75.90;;;;;;5034646;28;20486;-90
2023/10/23 07:11:37;;;;;;;2.70;1.07;;;22.00;76.10;;;;;;5034991;28;20973;-90
2023/10/23 07:14:05;;;;;;;1.43;1.10;;;22.00;75.90;;;;;;5034616;28;20473;-92
2023/10/23 07:16:32;;;;;;;1.90;1.20;;;22.00;76.10;;;;;;5039163;28;20432;-89
2023/10/23 07:19:04;;;;;;;1.93;1.10;;;22.00;76.00;;;;;;5061703;23;20518;-89
2023/10/23 07:24:18;;;;;;;2.40;1.20;;;22.00;75.60;;;;;;5060136;23;20469;-89
2023/10/23 07:26:44;;;;;;;1.60;1.20;;;22.00;75.60;;;;;;5040841;28;20443;-87
2023/10/23 07:29:13;;;;;;;3.83;1.43;;;22.00;74.90;;;;;;5034581;28;20474;-87
2023/10/23 07:31:39;;;;;;;1.50;1.20;;;22.10;75.70;;;;;;5026093;28;20885;-87
2023/10/23 07:34:06;;;;;;;2.80;1.20;;;22.00;75.80;;;;;;5014611;28;20439;-86
2023/10/23 07:36:37;;;;;;;1.93;1.40;;;22.00;75.80;;;;;;5024062;28;20911;-85
2023/10/23 07:39:04;;;;;;;4.10;1.77;;;22.00;76.10;;;;;;5033781;28;20525;-86
2023/10/23 07:41:31;;;;;;;10.33;4.60;;;22.00;76.40;;;;;;5034014;28;20457;-87
2023/10/23 07:43:58;;;;;;;12.40;5.50;;;22.00;77.40;;;;;;5034834;28;20492;-92
2023/10/23 07:46:26;;;;;;;9.43;4.90;;;22.00;77.60;;;;;;5034187;28;20450;-94
2023/10/23 07:48:53;;;;;;;9.97;5.17;;;22.00;77.50;;;;;;5034060;28;20496;-93
2023/10/23 07:51:20;;;;;;;13.57;4.90;;;22.10;78.00;;;;;;5034088;28;20452;-85
2023/10/23 07:53:47;;;;;;;10.03;4.10;;;22.10;78.10;;;;;;5033887;28;20445;-92
2023/10/23 07:56:14;;;;;;;10.00;5.10;;;22.10;78.00;;;;;;5033950;28;20442;-91
2023/10/23 07:58:41;;;;;;;16.17;7.27;;;22.20;77.90;;;;;;5034902;28;20960;-96
2023/10/23 08:01:08;;;;;;;12.90;6.70;;;22.20;77.80;;;;;;5034353;28;20439;-91
2023/10/23 08:03:37;;;;;;;23.13;9.33;;;22.30;78.10;;;;;;5034047;28;20442;-90
2023/10/23 08:06:05;;;;;;;76.63;19.77;;;22.30;78.10;;;;;;5033859;28;20445;-92
2023/10/23 08:08:33;;;;;;;75.57;21.07;;;22.30;77.90;;;;;;5034031;28;20438;-91
2023/10/23 08:11:00;;;;;;;80.23;23.07;;;22.30;77.70;;;;;;5033394;28;20517;-91
2023/10/23 08:13:27;;;;;;;51.67;16.60;;;22.30;78.10;;;;;;5034072;28;20442;-93
2023/10/23 08:15:54;;;;;;;59.93;16.40;;;22.30;78.20;;;;;;5023644;28;20443;-91
2023/10/23 08:18:21;;;;;;;58.67;15.80;;;22.40;78.70;;;;;;5013930;28;20463;-93
2023/10/23 08:20:53;;;;;;;42.37;14.27;;;22.40;78.70;;;;;;5009645;28;20447;-89
2023/10/23 08:23:19;;;;;;;48.07;14.47;;;22.40;78.80;;;;;;4994995;28;21058;-88
2023/10/23 08:25:46;;;;;;;34.83;10.53;;;22.40;79.20;;;;;;4994386;28;20476;-91
2023/10/23 08:28:13;;;;;;;29.60;7.73;;;22.50;78.40;;;;;;4994241;28;20435;-91
2023/10/23 08:30:40;;;;;;;36.90;8.93;;;22.50;77.60;;;;;;4994294;28;20883;-92
2023/10/23 08:33:09;;;;;;;24.53;5.70;;;22.60;77.70;;;;;;4995233;28;20502;-93
2023/10/23 08:35:36;;;;;;;25.37;5.53;;;22.70;76.30;;;;;;4994434;28;20869;-88
2023/10/23 08:38:04;;;;;;;17.10;5.87;;;22.80;75.60;;;;;;4993698;28;20540;-91
2023/10/23 08:40:32;;;;;;;17.50;5.80;;;22.90;76.00;;;;;;4993989;28;20567;-89
2023/10/23 08:42:59;;;;;;;24.23;6.10;;;22.90;75.00;;;;;;5009190;28;20435;-89
2023/10/23 08:45:26;;;;;;;10.07;4.00;;;23.10;74.80;;;;;;5000555;28;20446;-92
2023/10/23 08:47:53;;;;;;;13.40;4.83;;;23.10;74.40;;;;;;4994002;28;20470;-90
2023/10/23 08:50:20;;;;;;;16.43;4.87;;;23.20;74.20;;;;;;5006295;28;20504;-86
2023/10/23 08:52:57;;;;;;;11.90;5.00;;;23.30;75.50;;;;;;5014095;28;20457;-86
2023/10/23 08:55:26;;;;;;;22.10;6.17;;;23.40;75.50;;;;;;5013568;28;20449;-86
2023/10/23 08:57:55;;;;;;;17.50;6.00;;;23.60;74.90;;;;;;5013588;28;20438;-87
2023/10/23 09:00:27;;;;;;;12.30;4.80;;;23.70;74.60;;;;;;5014284;28;20446;-87
2023/10/23 09:02:58;;;;;;;15.23;4.77;;;23.80;74.20;;;;;;5013776;28;20435;-87
2023/10/23 09:05:25;;;;;;;13.60;5.00;;;23.80;73.80;;;;;;5013548;28;20447;-87
2023/10/23 09:07:52;;;;;;;20.20;6.37;;;23.90;73.70;;;;;;5013347;28;20469;-86
2023/10/23 09:10:19;;;;;;;10.93;5.27;;;23.90;73.80;;;;;;5013460;28;20486;-86
2023/10/23 09:12:54;;;;;;;17.97;4.77;;;23.90;73.90;;;;;;5013715;28;20466;-87
2023/10/23 09:15:23;;;;;;;18.00;5.27;;;23.90;74.00;;;;;;5014161;28;20781;-87
2023/10/23 09:17:50;;;;;;;14.63;5.77;;;24.00;74.10;;;;;;5014071;28;20930;-87
2023/10/23 09:20:24;;;;;;;9.87;3.67;;;24.20;73.70;;;;;;5013705;28;20478;-86
2023/10/23 09:22:52;;;;;;;14.67;4.33;;;24.40;73.40;;;;;;5013438;28;20432;-85
2023/10/23 09:25:20;;;;;;;11.40;4.77;;;24.50;73.30;;;;;;5011862;28;20525;-86
2023/10/23 09:27:48;;;;;;;13.80;4.47;;;24.50;72.70;;;;;;5013822;28;20447;-85
2023/10/23 09:30:21;;;;;;;13.80;4.20;;;24.50;72.70;;;;;;5013812;28;20502;-87
2023/10/23 09:32:50;;;;;;;5.23;3.67;;;24.70;72.90;;;;;;5017727;28;20450;-85
2023/10/23 09:35:17;;;;;;;8.70;4.07;;;24.70;72.40;;;;;;5017102;28;20813;-86
2023/10/23 09:37:46;;;;;;;9.53;4.30;;;24.80;72.40;;;;;;5018841;28;20435;-87
2023/10/23 09:40:16;;;;;;;9.10;3.47;;;24.90;72.40;;;;;;5015252;28;20478;-87
2023/10/23 09:42:43;;;;;;;6.43;3.63;;;24.90;70.40;;;;;;5016032;28;20443;-88
2023/10/23 09:45:12;;;;;;;8.97;4.27;;;24.90;71.00;;;;;;5015991;28;20439;-88
2023/10/23 09:47:40;;;;;;;8.90;3.23;;;24.90;70.70;;;;;;5016135;28;20431;-88
2023/10/23 09:50:08;;;;;;;7.67;3.80;;;25.00;70.50;;;;;;5032043;28;20855;-86
2023/10/23 09:52:37;;;;;;;10.43;4.23;;;25.10;70.40;;;;;;5018376;28;20451;-95
2023/10/23 09:55:05;;;;;;;7.53;3.43;;;25.20;70.30;;;;;;5017107;28;20443;-92
2023/10/23 09:57:36;;;;;;;7.53;3.03;;;25.20;71.60;;;;;;5017569;28;20463;-96
2023/10/23 10:00:11;;;;;;;7.63;3.73;;;25.20;71.50;;;;;;5017291;28;20423;-87
2023/10/23 10:02:44;;;;;;;7.93;3.20;;;25.30;71.60;;;;;;5017310;28;20447;-96
2023/10/23 10:05:13;;;;;;;9.00;3.73;;;25.40;71.60;;;;;;5017252;28;20489;-95
2023/10/23 10:07:49;;;;;;;13.57;4.20;;;25.40;71.60;;;;;;5016607;28;20443;-95
2023/10/23 10:10:17;;;;;;;10.63;3.77;;;25.40;71.60;;;;;;5016943;28;20490;-96
2023/10/23 10:12:46;;;;;;;9.87;3.23;;;25.40;71.60;;;;;;5016773;28;20538;-95
2023/10/23 10:15:13;;;;;;;7.40;3.60;;;25.40;72.00;;;;;;5016775;28;20443;-96
2023/10/23 10:17:43;;;;;;;5.47;3.37;;;25.20;72.20;;;;;;5017096;28;20845;-96
2023/10/23 10:20:10;;;;;;;7.40;3.50;;;25.00;72.60;;;;;;5017058;28;20810;-91
2023/10/23 10:22:39;;;;;;;7.17;3.30;;;24.80;73.20;;;;;;5017037;28;20499;-93
2023/10/23 10:25:09;;;;;;;4.80;3.33;;;24.60;73.70;;;;;;5016510;28;20549;-96
2023/10/23 10:27:36;;;;;;;8.80;3.47;;;24.40;73.90;;;;;;5017118;28;20447;-92
2023/10/23 10:30:05;;;;;;;6.90;3.20;;;24.30;74.40;;;;;;5016909;28;20479;-96
2023/10/23 10:32:33;;;;;;;8.37;3.87;;;24.20;74.80;;;;;;5016885;28;20505;-95
2023/10/23 10:35:06;;;;;;;10.87;3.07;;;24.10;74.90;;;;;;5016776;28;20443;-96
2023/10/23 10:37:33;;;;;;;6.50;2.93;;;24.00;75.10;;;;;;5016768;28;20427;-96
2023/10/23 10:40:06;;;;;;;9.87;3.93;;;24.00;75.30;;;;;;5016722;28;20507;-94
2023/10/23 10:42:38;;;;;;;7.67;3.30;;;23.90;75.50;;;;;;5015581;28;20438;-96
2023/10/23 10:45:18;;;;;;;10.30;3.93;;;23.90;75.70;;;;;;5016435;28;20454;-96
2023/10/23 10:47:48;;;;;;;5.63;3.23;;;23.80;75.80;;;;;;5016196;28;20423;-95
2023/10/23 10:50:31;;;;;;;7.83;2.97;;;23.80;75.80;;;;;;5016267;28;20525;-95
2023/10/23 10:53:02;;;;;;;8.60;3.20;;;23.80;76.00;;;;;;5016508;28;20534;-95
2023/10/23 10:55:29;;;;;;;3.40;2.70;;;23.70;76.00;;;;;;5016459;28;20435;-94
2023/10/23 10:57:56;;;;;;;8.23;3.57;;;23.80;76.10;;;;;;5016344;28;20449;-94
2023/10/23 11:00:23;;;;;;;5.67;3.10;;;23.70;76.10;;;;;;5016178;28;20439;-95
2023/10/23 11:02:50;;;;;;;5.93;2.90;;;23.70;76.30;;;;;;5019482;28;20442;-87
2023/10/23 11:05:18;;;;;;;3.50;2.37;;;23.70;76.20;;;;;;5015383;28;20799;-86
2023/10/23 11:07:47;;;;;;;5.00;2.73;;;23.60;76.40;;;;;;5015350;28;20442;-87
2023/10/23 11:10:14;;;;;;;4.20;2.63;;;23.60;76.50;;;;;;5015528;28;20483;-90
2023/10/23 11:12:41;;;;;;;3.90;2.30;;;23.60;76.10;;;;;;5015392;28;20443;-93
2023/10/23 11:15:09;;;;;;;4.17;3.07;;;23.60;76.50;;;;;;5015144;28;20550;-87
2023/10/23 11:17:36;;;;;;;5.13;2.70;;;23.60;76.60;;;;;;5005436;28;20436;-94
2023/10/23 11:20:07;;;;;;;7.70;2.80;;;23.50;76.60;;;;;;4997669;28;20983;-95
2023/10/23 11:22:37;;;;;;;4.30;2.53;;;23.50;76.50;;;;;;4997883;28;20420;-94
2023/10/23 11:25:06;;;;;;;8.43;3.13;;;23.50;76.80;;;;;;4996789;28;21089;-94
2023/10/23 11:27:34;;;;;;;6.90;2.57;;;23.60;77.00;;;;;;4999701;28;20448;-94
2023/10/23 11:30:01;;;;;;;12.07;2.63;;;23.50;76.70;;;;;;5000530;28;20472;-94
2023/10/23 11:32:29;;;;;;;6.40;2.10;;;23.50;76.80;;;;;;5001882;28;20531;-95
2023/10/23 11:35:03;;;;;;;5.50;2.93;;;23.50;77.00;;;;;;5000736;28;20471;-95
2023/10/23 11:37:37;;;;;;;4.50;2.60;;;23.50;77.20;;;;;;5001075;28;20428;-94
2023/10/23 11:40:08;;;;;;;7.33;2.60;;;23.50;77.20;;;;;;4998572;28;20551;-95
2023/10/23 11:42:47;;;;;;;9.20;2.97;;;23.40;77.20;;;;;;4996887;28;20786;-95
2023/10/23 11:45:17;;;;;;;5.83;3.17;;;23.40;77.20;;;;;;5000194;28;21030;-94
2023/10/23 11:47:44;;;;;;;2.63;2.00;;;23.40;77.00;;;;;;5000193;28;20454;-94
2023/10/23 11:50:12;;;;;;;7.00;2.77;;;23.50;77.20;;;;;;5000684;28;20974;-95
2023/10/23 11:52:45;;;;;;;2.93;2.13;;;23.40;77.20;;;;;;4998816;28;20479;-90
2023/10/23 11:55:14;;;;;;;12.10;2.57;;;23.40;77.10;;;;;;4995954;28;20436;-92
2023/10/23 11:57:42;;;;;;;4.53;2.47;;;23.40;77.20;;;;;;5013960;28;20647;-93
2023/10/23 12:00:12;;;;;;;7.40;2.30;;;23.40;77.30;;;;;;5014310;28;20447;-89
2023/10/23 12:02:40;;;;;;;5.33;1.80;;;23.40;76.70;;;;;;5016798;28;20513;-88
2023/10/23 12:05:10;;;;;;;2.43;2.10;;;23.40;74.80;;;;;;5033368;28;20439;-90
2023/10/23 12:07:39;;;;;;;3.30;1.70;;;23.30;73.80;;;;;;5033183;28;20848;-89
2023/10/23 12:10:09;;;;;;;3.03;1.80;;;23.30;73.80;;;;;;5033555;28;20868;-90
2023/10/23 12:12:36;;;;;;;5.07;2.20;;;23.10;73.40;;;;;;5033806;28;20434;-87
2023/10/23 12:15:04;;;;;;;7.33;2.60;;;23.10;73.60;;;;;;4998499;28;20451;-89
2023/10/23 12:17:31;;;;;;;3.27;2.00;;;23.00;73.70;;;;;;5002079;28;20459;-87
2023/10/23 12:19:58;;;;;;;3.23;2.03;;;23.00;73.70;;;;;;4993790;28;20438;-90
2023/10/23 12:22:25;;;;;;;4.10;2.27;;;23.00;75.00;;;;;;4993825;28;20777;-87
2023/10/23 12:24:52;;;;;;;4.63;2.00;;;23.00;75.20;;;;;;5000050;28;20464;-87
2023/10/23 12:27:20;;;;;;;2.47;1.73;;;23.00;75.10;;;;;;5013146;28;20447;-88
2023/10/23 12:29:46;;;;;;;10.53;2.57;;;23.00;75.20;;;;;;4994314;28;20519;-92
2023/10/23 12:32:14;;;;;;;6.40;2.10;;;23.00;75.50;;;;;;4994051;28;20574;-91
2023/10/23 12:34:41;;;;;;;8.70;2.17;;;23.10;75.60;;;;;;5005141;28;20509;-87
2023/10/23 12:37:08;;;;;;;2.70;2.00;;;23.10;75.70;;;;;;5014151;28;20449;-89
2023/10/23 12:39:35;;;;;;;6.27;2.20;;;23.10;75.80;;;;;;5006080;28;20475;-87
2023/10/23 12:42:02;;;;;;;3.13;2.10;;;23.10;75.80;;;;;;5013694;28;20455;-87
2023/10/23 12:44:31;;;;;;;11.80;2.00;;;23.10;75.90;;;;;;5013591;28;20451;-87
2023/10/23 12:46:57;;;;;;;3.50;1.90;;;23.10;76.10;;;;;;5013581;28;20467;-86
2023/10/23 12:49:24;;;;;;;3.93;2.00;;;23.10;76.00;;;;;;5013081;28;20451;-86
2023/10/23 12:51:51;;;;;;;4.43;2.23;;;23.10;76.10;;;;;;5012948;28;20486;-86
2023/10/23 12:54:18;;;;;;;2.63;1.70;;;23.10;76.30;;;;;;5013048;28;20439;-91
2023/10/23 12:56:45;;;;;;;4.33;1.97;;;23.10;76.10;;;;;;5013133;28;20529;-86
2023/10/23 12:59:12;;;;;;;3.20;2.03;;;23.10;76.20;;;;;;5013437;28;20443;-90
2023/10/23 13:01:40;;;;;;;3.00;1.87;;;23.10;76.30;;;;;;5012990;28;20448;-86
2023/10/23 13:04:07;;;;;;;2.47;1.70;;;23.10;76.30;;;;;;5013469;28;20442;-86
2023/10/23 13:06:33;;;;;;;4.23;1.67;;;23.10;76.40;;;;;;5015461;28;20443;-87
2023/10/23 13:09:00;;;;;;;2.10;1.90;;;23.10;76.30;;;;;;5017306;28;20466;-87
2023/10/23 13:11:30;;;;;;;2.30;1.67;;;23.00;76.20;;;;;;5017103;28;20482;-86
2023/10/23 13:13:57;;;;;;;3.33;1.77;;;23.10;76.50;;;;;;5016882;28;20482;-92
2023/10/23 13:16:25;;;;;;;2.63;1.70;;;23.00;76.30;;;;;;5016808;28;20543;-85
2023/10/23 13:18:54;;;;;;;3.30;1.90;;;23.00;76.40;;;;;;5016430;28;20451;-85
2023/10/23 13:21:20;;;;;;;1.77;1.33;;;23.10;76.50;;;;;;5016667;28;20450;-85
2023/10/23 13:23:47;;;;;;;3.40;1.80;;;23.00;76.60;;;;;;5017178;28;20479;-85
2023/10/23 13:26:14;;;;;;;3.10;1.80;;;23.00;76.50;;;;;;5016694;28;20509;-85
2023/10/23 13:28:41;;;;;;;2.60;2.10;;;23.00;76.40;;;;;;5016692;28;20474;-85
2023/10/23 13:31:07;;;;;;;2.80;2.10;;;23.00;76.50;;;;;;5015964;28;20493;-85
2023/10/23 13:33:34;;;;;;;10.30;1.93;;;23.00;76.50;;;;;;5016259;28;20807;-85
2023/10/23 13:36:02;;;;;;;3.87;1.70;;;23.00;76.60;;;;;;5015962;28;20442;-85
2023/10/23 13:38:30;;;;;;;3.47;1.60;;;23.00;76.60;;;;;;5015858;28;20443;-87
2023/10/23 13:40:57;;;;;;;1.70;1.53;;;23.00;76.60;;;;;;5016212;28;20446;-85
2023/10/23 13:43:25;;;;;;;3.10;1.20;;;23.00;76.70;;;;;;5016214;28;20443;-85
2023/10/23 13:45:51;;;;;;;3.97;1.60;;;23.00;76.60;;;;;;5016173;28;20442;-85
2023/10/23 13:48:18;;;;;;;2.40;1.83;;;23.00;76.60;;;;;;5016517;28;20803;-88
2023/10/23 13:50:49;;;;;;;3.63;1.73;;;23.00;76.80;;;;;;5016554;28;20491;-85